createdAt,value
2018-12-10T00:01:19.797Z,5.73
2018-12-10T00:06:13.076Z,5.72
2018-12-10T00:11:06.543Z,5.81
2018-12-10T00:15:59.825Z,5.89
2018-12-10T00:26:17.794Z,5.82
2018-12-10T00:31:11.055Z,5.79
2018-12-10T00:36:04.326Z,5.70
2018-12-10T00:40:57.608Z,5.52
2018-12-10T00:45:50.884Z,5.38
2018-12-10T01:06:58.875Z,5.57
2018-12-10T01:11:52.498Z,5.71
2018-12-10T01:16:45.784Z,5.84
2018-12-10T01:21:39.068Z,5.74
2018-12-10T01:26:32.373Z,5.66
2018-12-10T01:31:25.779Z,5.67
2018-12-10T01:36:19.126Z,5.85
2018-12-10T01:57:27.119Z,6.16
2018-12-10T02:02:20.394Z,6.19
2018-12-10T02:07:13.683Z,6.27
2018-12-10T02:12:06.950Z,6.30
2018-12-10T02:17:00.242Z,6.29
2018-12-10T02:37:00.597Z,6.06
2018-12-10T02:41:53.874Z,6.24
2018-12-10T02:46:47.154Z,6.25
2018-12-10T02:51:40.423Z,6.03
2018-12-10T03:07:22.903Z,5.91
2018-12-10T03:12:16.180Z,5.85
2018-12-10T03:17:09.456Z,5.91
2018-12-10T03:22:02.727Z,5.92
2018-12-10T03:42:37.003Z,6.00
2018-12-10T03:47:30.279Z,6.06
2018-12-10T03:52:23.555Z,6.07
2018-12-10T03:57:16.839Z,6.04
2018-12-10T04:02:10.117Z,6.09
2018-12-10T04:07:03.374Z,6.12
2018-12-10T04:11:56.686Z,6.17
2018-12-10T04:16:49.936Z,6.29
2018-12-10T04:37:56.842Z,6.11
2018-12-10T04:42:50.148Z,6.09
2018-12-10T04:47:43.437Z,6.04
2018-12-10T04:52:36.804Z,6.02
2018-12-10T04:57:30.100Z,6.02
2018-12-10T05:18:38.060Z,6.13
2018-12-10T05:23:31.316Z,6.14
2018-12-10T05:28:24.611Z,6.24
2018-12-10T05:33:17.886Z,6.21
2018-12-10T05:38:11.183Z,6.22
2018-12-10T05:47:55.622Z,6.29
2018-12-10T05:52:50.546Z,6.32
2018-12-10T05:57:44.027Z,6.26
2018-12-10T06:02:37.319Z,6.33
2018-12-10T06:23:44.517Z,6.11
2018-12-10T06:28:37.835Z,6.03
2018-12-10T06:33:31.120Z,5.91
2018-12-10T06:38:24.439Z,5.82
2018-12-10T06:43:17.783Z,5.76
2018-12-10T06:48:11.163Z,5.71
2018-12-10T06:53:04.590Z,5.67
2018-12-10T06:57:57.875Z,5.65
2018-12-10T07:19:05.981Z,5.73
2018-12-10T07:23:59.314Z,5.87
2018-12-10T07:28:53.273Z,5.86
2018-12-10T07:33:46.576Z,5.90
2018-12-10T07:38:39.902Z,5.91
2018-12-10T07:59:48.096Z,5.85
2018-12-10T08:04:42.276Z,5.77
2018-12-10T08:09:35.776Z,5.66
2018-12-10T08:14:29.078Z,5.70
2018-12-10T08:24:59.967Z,5.44
2018-12-10T08:29:53.508Z,5.57
2018-12-10T08:34:46.914Z,5.75
2018-12-10T08:39:40.624Z,5.75
2018-12-10T09:00:48.375Z,5.90
2018-12-10T09:05:41.661Z,5.97
2018-12-10T09:10:35.065Z,5.97
2018-12-10T09:15:28.367Z,5.91
2018-12-10T09:20:21.743Z,5.84
2018-12-10T09:25:15.083Z,5.92
2018-12-10T09:30:11.106Z,5.94
2018-12-10T09:35:05.523Z,6.07
2018-12-10T09:39:58.971Z,6.24
2018-12-10T10:01:06.782Z,6.39
2018-12-10T10:06:00.062Z,6.41
2018-12-10T10:10:53.730Z,6.48
2018-12-10T10:15:48.562Z,6.74
2018-12-10T10:36:56.749Z,7.52
2018-12-10T10:41:50.210Z,7.65
2018-12-10T10:46:45.031Z,7.82
2018-12-10T10:51:39.529Z,8.07
2018-12-10T10:56:32.965Z,8.25
2018-12-10T11:06:51.297Z,8.02
2018-12-10T11:11:44.918Z,7.85
2018-12-10T11:16:38.310Z,7.73
2018-12-10T11:21:33.691Z,7.63
2018-12-10T11:42:41.177Z,7.29
2018-12-10T11:47:34.493Z,7.25
2018-12-10T11:52:28.191Z,7.35
2018-12-10T11:57:21.519Z,7.62
2018-12-10T12:02:29.586Z,7.53
2018-12-10T12:23:32.498Z,7.25
2018-12-10T12:28:25.884Z,7.30
2018-12-10T12:33:19.183Z,7.36
2018-12-10T12:38:12.884Z,7.30
2018-12-10T12:53:56.167Z,7.39
2018-12-10T12:58:58.564Z,7.00
2018-12-10T13:03:52.615Z,6.61
2018-12-10T13:08:45.947Z,6.57
2018-12-10T13:29:52.918Z,5.55
2018-12-10T13:34:46.713Z,5.63
2018-12-10T13:39:40.021Z,5.68
2018-12-10T13:44:33.343Z,5.53
2018-12-10T14:05:40.496Z,5.95
2018-12-10T14:10:33.881Z,6.08
2018-12-10T14:15:27.176Z,6.15
2018-12-10T14:20:20.484Z,6.34
2018-12-10T14:25:23.166Z,6.48
2018-12-10T14:41:05.960Z,6.73
2018-12-10T14:46:01.492Z,6.64
2018-12-10T14:50:55.215Z,6.55
2018-12-10T14:55:48.612Z,6.60
2018-12-10T15:16:55.959Z,6.46
2018-12-10T15:21:49.367Z,6.44
2018-12-10T15:26:42.679Z,6.58
2018-12-10T15:31:35.966Z,6.46
2018-12-10T15:36:29.251Z,6.32
2018-12-10T15:57:36.976Z,5.92
2018-12-10T16:02:30.648Z,5.95
2018-12-10T16:07:24.051Z,6.31
2018-12-10T16:12:17.327Z,6.34
2018-12-10T16:17:16.978Z,6.17
2018-12-10T16:27:36.026Z,5.18
2018-12-10T16:32:29.324Z,5.04
2018-12-10T16:37:22.735Z,5.01
2018-12-10T16:42:16.058Z,5.24
2018-12-10T17:03:23.107Z,5.02
2018-12-10T17:08:16.495Z,4.96
2018-12-10T17:13:09.771Z,4.93
2018-12-10T17:18:03.094Z,4.97
2018-12-10T17:22:56.556Z,5.13
2018-12-10T17:44:04.443Z,5.23
2018-12-10T17:48:57.731Z,5.39
2018-12-10T17:53:51.162Z,5.65
2018-12-10T17:58:45.015Z,5.67
2018-12-10T18:09:07.533Z,5.66
2018-12-10T18:14:00.799Z,5.59
2018-12-10T18:18:54.146Z,5.56
2018-12-10T18:23:47.511Z,5.67
2018-12-10T18:28:40.987Z,5.62
2018-12-10T18:49:49.068Z,5.50
2018-12-10T18:54:42.381Z,5.37
2018-12-10T18:59:35.752Z,5.24
2018-12-10T19:04:29.022Z,5.06
2018-12-10T19:25:36.740Z,5.21
2018-12-10T19:30:30.035Z,5.25
2018-12-10T19:35:23.310Z,5.25
2018-12-10T19:40:16.679Z,5.20
2018-12-10T19:45:10.019Z,5.26
2018-12-10T19:55:28.793Z,5.23
2018-12-10T20:00:22.253Z,5.16
2018-12-10T20:05:15.790Z,5.25
2018-12-10T20:10:09.433Z,5.21
2018-12-10T20:15:02.915Z,5.23
2018-12-10T20:36:10.423Z,5.18
2018-12-10T20:41:03.859Z,5.37
2018-12-10T20:45:57.183Z,5.50
2018-12-10T20:50:50.459Z,5.58
2018-12-10T20:55:43.732Z,5.54
2018-12-10T21:16:51.065Z,5.61
2018-12-10T21:21:44.336Z,5.55
2018-12-10T21:26:37.620Z,5.69
2018-12-10T21:31:30.904Z,5.68
2018-12-10T21:36:24.408Z,5.58
2018-12-10T21:41:40.816Z,5.58
2018-12-10T21:46:34.103Z,5.51
2018-12-10T21:51:27.375Z,4.93
2018-12-10T21:56:20.837Z,4.65
2018-12-10T22:01:14.168Z,4.49
2018-12-10T22:22:22.736Z,3.92
2018-12-10T22:27:16.026Z,3.83
2018-12-10T22:32:09.315Z,3.56
2018-12-10T22:37:02.594Z,3.49
2018-12-10T22:41:55.870Z,3.46
2018-12-10T23:03:03.598Z,3.73
2018-12-10T23:07:56.888Z,3.67
2018-12-10T23:12:50.170Z,3.72
2018-12-10T23:17:44.440Z,3.77
2018-12-10T23:28:02.926Z,3.75
2018-12-10T23:32:56.227Z,3.86
2018-12-10T23:37:49.504Z,3.93
2018-12-10T23:47:56.950Z,3.95
2018-12-10T23:52:50.244Z,4.05
2018-12-10T23:57:43.564Z,4.01
